sensor_id;sensor_type;location;lat;lon;timestamp;pressure;altitude;pressure_sealevel;temperature;humidity
63121;BME280;54478;48.684;20.114;2022-07-06T00:01:20;97713.13;;;18.00;88.78
63121;BME280;54478;48.684;20.114;2022-07-06T00:03:49;97728.31;;;18.04;90.36
63121;BME280;54478;48.684;20.114;2022-07-06T00:06:17;97726.44;;;17.99;89.29
63121;BME280;54478;48.684;20.114;2022-07-06T00:08:45;97713.50;;;17.96;88.99
63121;BME280;54478;48.684;20.114;2022-07-06T00:11:14;97704.69;;;17.92;88.38
63121;BME280;54478;48.684;20.114;2022-07-06T00:13:42;97732.84;;;18.00;89.11
63121;BME280;54478;48.684;20.114;2022-07-06T00:16:11;97738.81;;;18.12;88.37
63121;BME280;54478;48.684;20.114;2022-07-06T00:18:39;97723.47;;;17.97;84.99
63121;BME280;54478;48.684;20.114;2022-07-06T00:21:08;97733.19;;;18.12;87.23
63121;BME280;54478;48.684;20.114;2022-07-06T00:23:36;97751.22;;;18.16;86.36
63121;BME280;54478;48.684;20.114;2022-07-06T00:26:04;97731.31;;;18.14;84.75
63121;BME280;54478;48.684;20.114;2022-07-06T00:28:33;97725.28;;;18.18;84.32
63121;BME280;54478;48.684;20.114;2022-07-06T00:30:58;97737.13;;;18.16;84.55
63121;BME280;54478;48.684;20.114;2022-07-06T00:33:27;97748.53;;;18.26;84.13
63121;BME280;54478;48.684;20.114;2022-07-06T00:35:55;97748.38;;;18.24;84.15
63121;BME280;54478;48.684;20.114;2022-07-06T00:38:23;97750.81;;;18.20;85.44
63121;BME280;54478;48.684;20.114;2022-07-06T00:40:52;97741.63;;;18.19;84.49
63121;BME280;54478;48.684;20.114;2022-07-06T00:43:20;97739.41;;;18.10;84.17
63121;BME280;54478;48.684;20.114;2022-07-06T00:45:48;97752.72;;;18.10;86.31
63121;BME280;54478;48.684;20.114;2022-07-06T00:48:17;97728.50;;;17.91;85.58
63121;BME280;54478;48.684;20.114;2022-07-06T00:50:45;97730.03;;;17.77;90.16
63121;BME280;54478;48.684;20.114;2022-07-06T00:53:14;97748.03;;;17.66;91.26
63121;BME280;54478;48.684;20.114;2022-07-06T00:55:42;97736.97;;;17.52;91.56
63121;BME280;54478;48.684;20.114;2022-07-06T00:58:10;97744.13;;;17.53;91.84
63121;BME280;54478;48.684;20.114;2022-07-06T01:00:39;97730.03;;;17.61;92.01
63121;BME280;54478;48.684;20.114;2022-07-06T01:03:12;97744.13;;;17.77;90.69
63121;BME280;54478;48.684;20.114;2022-07-06T01:05:40;97743.34;;;17.76;89.43
63121;BME280;54478;48.684;20.114;2022-07-06T01:08:09;97753.13;;;17.83;88.39
63121;BME280;54478;48.684;20.114;2022-07-06T01:10:37;97747.09;;;17.86;87.94
63121;BME280;54478;48.684;20.114;2022-07-06T01:13:06;97746.56;;;17.80;87.07
63121;BME280;54478;48.684;20.114;2022-07-06T01:15:34;97749.38;;;17.80;87.21
63121;BME280;54478;48.684;20.114;2022-07-06T01:18:04;97752.91;;;17.81;87.59
63121;BME280;54478;48.684;20.114;2022-07-06T01:20:32;97755.38;;;17.77;88.48
63121;BME280;54478;48.684;20.114;2022-07-06T01:23:01;97741.88;;;17.67;89.42
63121;BME280;54478;48.684;20.114;2022-07-06T01:25:29;97739.59;;;17.58;88.64
63121;BME280;54478;48.684;20.114;2022-07-06T01:27:57;97755.94;;;17.59;90.31
63121;BME280;54478;48.684;20.114;2022-07-06T01:30:26;97745.06;;;17.56;88.92
63121;BME280;54478;48.684;20.114;2022-07-06T01:32:54;97740.53;;;17.53;89.92
63121;BME280;54478;48.684;20.114;2022-07-06T01:35:24;97765.31;;;17.62;89.34
63121;BME280;54478;48.684;20.114;2022-07-06T01:37:52;97759.69;;;17.62;89.61
63121;BME280;54478;48.684;20.114;2022-07-06T01:40:21;97752.00;;;17.70;88.38
63121;BME280;54478;48.684;20.114;2022-07-06T01:42:49;97751.97;;;17.78;87.46
63121;BME280;54478;48.684;20.114;2022-07-06T01:45:18;97763.25;;;17.70;89.75
63121;BME280;54478;48.684;20.114;2022-07-06T01:47:46;97759.69;;;17.62;90.02
63121;BME280;54478;48.684;20.114;2022-07-06T01:50:14;97764.75;;;17.71;89.22
63121;BME280;54478;48.684;20.114;2022-07-06T01:52:43;97757.63;;;17.63;88.23
63121;BME280;54478;48.684;20.114;2022-07-06T01:55:11;97752.94;;;17.65;87.79
63121;BME280;54478;48.684;20.114;2022-07-06T01:57:39;97776.94;;;17.74;88.33
63121;BME280;54478;48.684;20.114;2022-07-06T02:00:08;97774.31;;;17.61;88.83
63121;BME280;54478;48.684;20.114;2022-07-06T02:02:36;97772.63;;;17.57;91.56
63121;BME280;54478;48.684;20.114;2022-07-06T02:05:05;97784.09;;;17.59;91.69
63121;BME280;54478;48.684;20.114;2022-07-06T02:07:33;97763.59;;;17.43;91.65
63121;BME280;54478;48.684;20.114;2022-07-06T02:10:02;97764.53;;;17.38;91.61
63121;BME280;54478;48.684;20.114;2022-07-06T02:12:31;97780.50;;;17.43;91.31
63121;BME280;54478;48.684;20.114;2022-07-06T02:15:00;97771.88;;;17.41;91.80
63121;BME280;54478;48.684;20.114;2022-07-06T02:17:28;97778.81;;;17.40;92.64
63121;BME280;54478;48.684;20.114;2022-07-06T02:19:56;97790.44;;;17.45;94.91
63121;BME280;54478;48.684;20.114;2022-07-06T02:22:24;97782.72;;;17.37;93.02
63121;BME280;54478;48.684;20.114;2022-07-06T02:24:52;97786.47;;;17.24;93.44
63121;BME280;54478;48.684;20.114;2022-07-06T02:27:21;97802.25;;;17.35;93.31
63121;BME280;54478;48.684;20.114;2022-07-06T02:29:49;97802.97;;;17.36;94.29
63121;BME280;54478;48.684;20.114;2022-07-06T02:32:14;97811.44;;;17.43;93.24
63121;BME280;54478;48.684;20.114;2022-07-06T02:34:42;97809.75;;;17.33;93.88
63121;BME280;54478;48.684;20.114;2022-07-06T02:37:11;97809.56;;;17.38;92.79
63121;BME280;54478;48.684;20.114;2022-07-06T02:39:39;97816.34;;;17.51;92.86
63121;BME280;54478;48.684;20.114;2022-07-06T02:42:08;97809.00;;;17.48;91.53
63121;BME280;54478;48.684;20.114;2022-07-06T02:44:36;97812.59;;;17.48;91.30
63121;BME280;54478;48.684;20.114;2022-07-06T02:47:04;97827.22;;;17.47;91.43
63121;BME280;54478;48.684;20.114;2022-07-06T02:49:33;97837.72;;;17.54;90.34
63121;BME280;54478;48.684;20.114;2022-07-06T02:52:01;97831.50;;;17.40;90.21
63121;BME280;54478;48.684;20.114;2022-07-06T02:54:30;97829.06;;;17.36;90.56
63121;BME280;54478;48.684;20.114;2022-07-06T02:56:58;97830.38;;;17.43;89.22
63121;BME280;54478;48.684;20.114;2022-07-06T02:59:27;97818.00;;;17.38;88.99
63121;BME280;54478;48.684;20.114;2022-07-06T03:01:55;97836.59;;;17.49;89.57
63121;BME280;54478;48.684;20.114;2022-07-06T03:04:23;97832.44;;;17.42;89.30
63121;BME280;54478;48.684;20.114;2022-07-06T03:06:52;97837.88;;;17.33;90.98
63121;BME280;54478;48.684;20.114;2022-07-06T03:09:20;97853.06;;;17.45;90.39
63121;BME280;54478;48.684;20.114;2022-07-06T03:11:49;97822.09;;;17.37;90.99
63121;BME280;54478;48.684;20.114;2022-07-06T03:14:17;97841.28;;;17.47;92.50
63121;BME280;54478;48.684;20.114;2022-07-06T03:16:44;97833.34;;;17.37;92.82
63121;BME280;54478;48.684;20.114;2022-07-06T03:19:09;97840.69;;;17.40;92.58
63121;BME280;54478;48.684;20.114;2022-07-06T03:21:37;97845.56;;;17.40;92.45
63121;BME280;54478;48.684;20.114;2022-07-06T03:24:06;97837.88;;;17.40;91.79
63121;BME280;54478;48.684;20.114;2022-07-06T03:26:34;97849.16;;;17.56;91.01
63121;BME280;54478;48.684;20.114;2022-07-06T03:29:03;97842.00;;;17.39;90.96
63121;BME280;54478;48.684;20.114;2022-07-06T03:31:28;97834.69;;;17.36;91.50
63121;BME280;54478;48.684;20.114;2022-07-06T03:33:56;97833.34;;;17.30;90.73
63121;BME280;54478;48.684;20.114;2022-07-06T03:36:25;97831.88;;;17.36;91.14
63121;BME280;54478;48.684;20.114;2022-07-06T03:38:53;97849.13;;;17.40;91.79
63121;BME280;54478;48.684;20.114;2022-07-06T03:41:21;97848.00;;;17.43;92.17
63121;BME280;54478;48.684;20.114;2022-07-06T03:43:49;97845.53;;;17.32;92.19
63121;BME280;54478;48.684;20.114;2022-07-06T03:46:18;97841.63;;;17.35;91.59
63121;BME280;54478;48.684;20.114;2022-07-06T03:48:46;97846.34;;;17.48;90.86
63121;BME280;54478;48.684;20.114;2022-07-06T03:51:14;97851.78;;;17.54;90.25
63121;BME280;54478;48.684;20.114;2022-07-06T03:53:43;97847.66;;;17.63;90.02
63121;BME280;54478;48.684;20.114;2022-07-06T03:56:11;97839.59;;;17.51;89.98
63121;BME280;54478;48.684;20.114;2022-07-06T03:58:56;97875.09;;;17.70;89.10
63121;BME280;54478;48.684;20.114;2022-07-06T04:01:28;97860.63;;;17.73;88.59
63121;BME280;54478;48.684;20.114;2022-07-06T04:03:58;97861.75;;;17.78;88.21
63121;BME280;54478;48.684;20.114;2022-07-06T04:06:26;97870.78;;;17.84;87.39
63121;BME280;54478;48.684;20.114;2022-07-06T04:08:54;97856.13;;;17.78;87.37
63121;BME280;54478;48.684;20.114;2022-07-06T04:11:23;97851.81;;;17.69;86.73
63121;BME280;54478;48.684;20.114;2022-07-06T04:13:51;97852.19;;;17.73;87.01
63121;BME280;54478;48.684;20.114;2022-07-06T04:16:20;97859.88;;;17.81;87.33
63121;BME280;54478;48.684;20.114;2022-07-06T04:18:48;97857.63;;;17.79;86.58
63121;BME280;54478;48.684;20.114;2022-07-06T04:21:17;97861.41;;;17.82;86.72
63121;BME280;54478;48.684;20.114;2022-07-06T04:23:45;97873.59;;;17.92;87.47
63121;BME280;54478;48.684;20.114;2022-07-06T04:26:13;97878.84;;;17.80;87.93
63121;BME280;54478;48.684;20.114;2022-07-06T04:28:42;97865.31;;;17.71;88.23
63121;BME280;54478;48.684;20.114;2022-07-06T04:31:07;97876.41;;;17.77;88.06
63121;BME280;54478;48.684;20.114;2022-07-06T04:33:35;97877.72;;;17.75;89.27
63121;BME280;54478;48.684;20.114;2022-07-06T04:36:04;97877.91;;;17.70;89.17
63121;BME280;54478;48.684;20.114;2022-07-06T04:38:32;97887.47;;;17.74;89.09
63121;BME280;54478;48.684;20.114;2022-07-06T04:41:01;97874.88;;;17.68;87.89
63121;BME280;54478;48.684;20.114;2022-07-06T04:43:30;97888.25;;;17.90;86.24
63121;BME280;54478;48.684;20.114;2022-07-06T04:45:58;97886.00;;;17.97;87.23
63121;BME280;54478;48.684;20.114;2022-07-06T04:48:26;97882.63;;;17.90;87.91
63121;BME280;54478;48.684;20.114;2022-07-06T04:50:55;97877.34;;;17.79;87.82
63121;BME280;54478;48.684;20.114;2022-07-06T04:53:23;97885.59;;;17.85;86.14
63121;BME280;54478;48.684;20.114;2022-07-06T04:55:51;97893.31;;;17.92;86.73
63121;BME280;54478;48.684;20.114;2022-07-06T04:58:20;97888.28;;;17.98;86.21
63121;BME280;54478;48.684;20.114;2022-07-06T05:00:48;97873.41;;;17.90;86.51
63121;BME280;54478;48.684;20.114;2022-07-06T05:03:17;97886.94;;;18.15;86.21
63121;BME280;54478;48.684;20.114;2022-07-06T05:05:42;97880.56;;;18.22;85.00
63121;BME280;54478;48.684;20.114;2022-07-06T05:08:10;97883.19;;;18.20;85.18
63121;BME280;54478;48.684;20.114;2022-07-06T05:10:39;97876.47;;;18.15;84.08
63121;BME280;54478;48.684;20.114;2022-07-06T05:13:07;97872.13;;;18.14;85.02
63121;BME280;54478;48.684;20.114;2022-07-06T05:15:36;97896.53;;;18.19;85.34
63121;BME280;54478;48.684;20.114;2022-07-06T05:18:04;97890.16;;;18.11;85.45
63121;BME280;54478;48.684;20.114;2022-07-06T05:20:33;97902.19;;;18.12;85.89
63121;BME280;54478;48.684;20.114;2022-07-06T05:23:01;97884.53;;;17.96;86.79
63121;BME280;54478;48.684;20.114;2022-07-06T05:25:29;97879.44;;;18.02;87.13
63121;BME280;54478;48.684;20.114;2022-07-06T05:27:59;97905.56;;;18.02;86.99
63121;BME280;54478;48.684;20.114;2022-07-06T05:30:27;97895.78;;;18.03;87.23
63121;BME280;54478;48.684;20.114;2022-07-06T05:32:55;97891.47;;;18.02;86.97
63121;BME280;54478;48.684;20.114;2022-07-06T05:35:24;97900.66;;;18.11;85.58
63121;BME280;54478;48.684;20.114;2022-07-06T05:37:52;97901.78;;;18.38;83.84
63121;BME280;54478;48.684;20.114;2022-07-06T05:40:21;97906.66;;;18.30;84.15
63121;BME280;54478;48.684;20.114;2022-07-06T05:42:49;97904.63;;;18.38;82.64
63121;BME280;54478;48.684;20.114;2022-07-06T05:45:17;97898.41;;;18.32;82.29
63121;BME280;54478;48.684;20.114;2022-07-06T05:47:46;97900.63;;;18.57;82.12
63121;BME280;54478;48.684;20.114;2022-07-06T05:50:30;97898.75;;;18.67;81.31
63121;BME280;54478;48.684;20.114;2022-07-06T05:53:01;97898.56;;;18.65;79.32
63121;BME280;54478;48.684;20.114;2022-07-06T05:55:30;97916.56;;;18.78;79.68
63121;BME280;54478;48.684;20.114;2022-07-06T05:57:58;97916.75;;;18.87;79.99
63121;BME280;54478;48.684;20.114;2022-07-06T06:00:27;97912.63;;;18.96;79.94
63121;BME280;54478;48.684;20.114;2022-07-06T06:02:57;97919.72;;;19.13;80.09
63121;BME280;54478;48.684;20.114;2022-07-06T06:05:26;97917.84;;;19.15;79.12
63121;BME280;54478;48.684;20.114;2022-07-06T06:07:55;97910.31;;;19.18;76.94
63121;BME280;54478;48.684;20.114;2022-07-06T06:10:23;97908.81;;;19.09;79.35
63121;BME280;54478;48.684;20.114;2022-07-06T06:12:52;97903.13;;;19.25;78.27
63121;BME280;54478;48.684;20.114;2022-07-06T06:15:20;97906.22;;;19.44;78.33
63121;BME280;54478;48.684;20.114;2022-07-06T06:17:49;97905.97;;;19.58;78.27
63121;BME280;54478;48.684;20.114;2022-07-06T06:20:17;97909.63;;;19.76;76.46
63121;BME280;54478;48.684;20.114;2022-07-06T06:22:56;97914.75;;;20.02;73.92
63121;BME280;54478;48.684;20.114;2022-07-06T06:27:57;97901.84;;;19.92;73.40
63121;BME280;54478;48.684;20.114;2022-07-06T06:30:23;97900.50;;;20.18;73.06
63121;BME280;54478;48.684;20.114;2022-07-06T06:33:06;97906.59;;;20.32;71.43
63121;BME280;54478;48.684;20.114;2022-07-06T06:35:32;97902.22;;;20.38;72.25
63121;BME280;54478;48.684;20.114;2022-07-06T06:38:01;97909.13;;;20.45;71.49
63121;BME280;54478;48.684;20.114;2022-07-06T06:40:29;97899.16;;;20.62;71.10
63121;BME280;54478;48.684;20.114;2022-07-06T06:42:57;97903.25;;;20.68;69.62
63121;BME280;54478;48.684;20.114;2022-07-06T06:45:24;97897.59;;;20.68;70.21
63121;BME280;54478;48.684;20.114;2022-07-06T06:47:52;97906.13;;;20.86;69.79
63121;BME280;54478;48.684;20.114;2022-07-06T06:50:20;97901.22;;;21.04;68.90
63121;BME280;54478;48.684;20.114;2022-07-06T06:52:50;97903.22;;;20.94;68.84
63121;BME280;54478;48.684;20.114;2022-07-06T06:55:19;97924.16;;;21.08;67.46
63121;BME280;54478;48.684;20.114;2022-07-06T06:57:47;97923.56;;;21.27;66.81
63121;BME280;54478;48.684;20.114;2022-07-06T07:00:16;97913.06;;;21.38;66.54
63121;BME280;54478;48.684;20.114;2022-07-06T07:02:45;97921.56;;;21.55;65.59
63121;BME280;54478;48.684;20.114;2022-07-06T07:05:13;97912.06;;;21.60;63.90
63121;BME280;54478;48.684;20.114;2022-07-06T07:07:42;97937.97;;;21.84;64.42
63121;BME280;54478;48.684;20.114;2022-07-06T07:10:11;97932.66;;;21.98;62.15
63121;BME280;54478;48.684;20.114;2022-07-06T07:12:46;97936.25;;;21.71;64.50
63121;BME280;54478;48.684;20.114;2022-07-06T07:15:12;97938.47;;;22.27;63.65
63121;BME280;54478;48.684;20.114;2022-07-06T07:17:40;97928.84;;;22.40;62.67
63121;BME280;54478;48.684;20.114;2022-07-06T07:20:09;97943.91;;;22.53;62.94
63121;BME280;54478;48.684;20.114;2022-07-06T07:22:38;97944.06;;;22.45;63.30
63121;BME280;54478;48.684;20.114;2022-07-06T07:25:06;97940.09;;;22.21;58.85
63121;BME280;54478;48.684;20.114;2022-07-06T07:27:35;97938.72;;;21.84;60.83
63121;BME280;54478;48.684;20.114;2022-07-06T07:30:04;97937.28;;;21.66;59.91
63121;BME280;54478;48.684;20.114;2022-07-06T07:32:30;97948.81;;;21.78;61.93
63121;BME280;54478;48.684;20.114;2022-07-06T07:34:58;97950.50;;;21.81;61.01
63121;BME280;54478;48.684;20.114;2022-07-06T07:37:27;97955.25;;;21.78;61.31
63121;BME280;54478;48.684;20.114;2022-07-06T07:39:55;97952.66;;;21.73;62.93
63121;BME280;54478;48.684;20.114;2022-07-06T07:42:23;97971.25;;;21.66;62.84
63121;BME280;54478;48.684;20.114;2022-07-06T07:44:52;97958.09;;;21.88;61.11
63121;BME280;54478;48.684;20.114;2022-07-06T07:47:20;97965.81;;;21.78;60.22
63121;BME280;54478;48.684;20.114;2022-07-06T07:49:49;97963.53;;;21.94;59.94
63121;BME280;54478;48.684;20.114;2022-07-06T07:52:17;97969.56;;;22.08;58.41
63121;BME280;54478;48.684;20.114;2022-07-06T07:54:46;97982.84;;;22.15;58.33
63121;BME280;54478;48.684;20.114;2022-07-06T07:57:14;97980.69;;;22.33;57.24
63121;BME280;54478;48.684;20.114;2022-07-06T07:59:42;97976.59;;;22.44;57.70
63121;BME280;54478;48.684;20.114;2022-07-06T08:02:11;97979.38;;;22.81;57.63
63121;BME280;54478;48.684;20.114;2022-07-06T08:04:39;97986.41;;;22.80;56.59
63121;BME280;54478;48.684;20.114;2022-07-06T08:07:08;97986.13;;;22.39;58.39
63121;BME280;54478;48.684;20.114;2022-07-06T08:09:36;97993.22;;;22.57;58.26
63121;BME280;54478;48.684;20.114;2022-07-06T08:12:05;97991.03;;;22.38;58.26
63121;BME280;54478;48.684;20.114;2022-07-06T08:14:33;97996.50;;;22.26;60.10
63121;BME280;54478;48.684;20.114;2022-07-06T08:17:02;98000.75;;;22.45;60.34
63121;BME280;54478;48.684;20.114;2022-07-06T08:19:31;98007.50;;;22.49;59.11
63121;BME280;54478;48.684;20.114;2022-07-06T08:21:59;98009.50;;;22.66;58.67
63121;BME280;54478;48.684;20.114;2022-07-06T08:24:27;98006.53;;;22.74;58.23
63121;BME280;54478;48.684;20.114;2022-07-06T08:26:56;98001.28;;;22.71;58.26
63121;BME280;54478;48.684;20.114;2022-07-06T08:29:26;98015.09;;;22.84;57.74
63121;BME280;54478;48.684;20.114;2022-07-06T08:31:51;98036.56;;;22.77;57.66
63121;BME280;54478;48.684;20.114;2022-07-06T08:34:20;98037.25;;;22.58;57.66
63121;BME280;54478;48.684;20.114;2022-07-06T08:36:48;98038.22;;;22.80;57.32
63121;BME280;54478;48.684;20.114;2022-07-06T08:39:19;98048.81;;;22.80;56.76
63121;BME280;54478;48.684;20.114;2022-07-06T08:41:48;98051.16;;;23.11;56.62
63121;BME280;54478;48.684;20.114;2022-07-06T08:44:17;98050.03;;;22.87;57.89
63121;BME280;54478;48.684;20.114;2022-07-06T08:46:49;98050.41;;;22.63;54.47
63121;BME280;54478;48.684;20.114;2022-07-06T08:49:18;98038.75;;;22.59;51.23
63121;BME280;54478;48.684;20.114;2022-07-06T08:51:47;98045.06;;;23.34;47.78
63121;BME280;54478;48.684;20.114;2022-07-06T08:54:15;98035.59;;;23.02;47.37
63121;BME280;54478;48.684;20.114;2022-07-06T08:56:43;98041.22;;;22.92;47.73
63121;BME280;54478;48.684;20.114;2022-07-06T08:59:12;98052.75;;;22.94;46.88
63121;BME280;54478;48.684;20.114;2022-07-06T09:01:40;98049.84;;;23.41;45.22
63121;BME280;54478;48.684;20.114;2022-07-06T09:04:09;98037.44;;;23.76;45.17
63121;BME280;54478;48.684;20.114;2022-07-06T09:06:38;98055.09;;;23.84;45.33
63121;BME280;54478;48.684;20.114;2022-07-06T09:09:09;98042.06;;;24.01;44.44
63121;BME280;54478;48.684;20.114;2022-07-06T09:11:37;98058.03;;;24.25;44.14
63121;BME280;54478;48.684;20.114;2022-07-06T09:14:06;98056.09;;;24.18;44.18
63121;BME280;54478;48.684;20.114;2022-07-06T09:16:34;98052.22;;;24.13;44.95
63121;BME280;54478;48.684;20.114;2022-07-06T09:19:05;98040.00;;;23.91;44.14
63121;BME280;54478;48.684;20.114;2022-07-06T09:21:34;98047.41;;;24.16;42.45
63121;BME280;54478;48.684;20.114;2022-07-06T09:24:08;98052.19;;;24.23;41.88
63121;BME280;54478;48.684;20.114;2022-07-06T09:26:38;98037.88;;;24.53;41.25
63121;BME280;54478;48.684;20.114;2022-07-06T09:29:07;98042.78;;;24.62;41.09
63121;BME280;54478;48.684;20.114;2022-07-06T09:31:33;98045.47;;;24.70;41.57
63121;BME280;54478;48.684;20.114;2022-07-06T09:34:03;98047.56;;;24.18;40.28
63121;BME280;54478;48.684;20.114;2022-07-06T09:36:41;98043.50;;;24.62;39.95
63121;BME280;54478;48.684;20.114;2022-07-06T09:39:27;98045.03;;;24.63;40.01
63121;BME280;54478;48.684;20.114;2022-07-06T09:41:57;98052.66;;;24.20;41.02
63121;BME280;54478;48.684;20.114;2022-07-06T09:44:27;98057.38;;;24.46;40.25
63121;BME280;54478;48.684;20.114;2022-07-06T09:47:00;98045.19;;;24.56;40.02
63121;BME280;54478;48.684;20.114;2022-07-06T09:49:26;98061.38;;;24.94;38.80
63121;BME280;54478;48.684;20.114;2022-07-06T09:51:57;98063.63;;;25.18;38.41
63121;BME280;54478;48.684;20.114;2022-07-06T09:54:26;98048.59;;;25.49;38.22
63121;BME280;54478;48.684;20.114;2022-07-06T09:56:56;98040.13;;;24.86;37.87
63121;BME280;54478;48.684;20.114;2022-07-06T09:59:26;98048.50;;;24.93;38.25
63121;BME280;54478;48.684;20.114;2022-07-06T10:02:00;98043.75;;;24.86;37.66
63121;BME280;54478;48.684;20.114;2022-07-06T10:04:27;98053.66;;;25.07;37.10
63121;BME280;54478;48.684;20.114;2022-07-06T10:06:57;98058.63;;;25.28;36.81
63121;BME280;54478;48.684;20.114;2022-07-06T10:09:28;98064.84;;;24.93;35.69
63121;BME280;54478;48.684;20.114;2022-07-06T10:12:01;98057.63;;;25.23;35.62
63121;BME280;54478;48.684;20.114;2022-07-06T10:14:30;98055.91;;;25.30;35.20
63121;BME280;54478;48.684;20.114;2022-07-06T10:17:01;98052.38;;;24.67;35.26
63121;BME280;54478;48.684;20.114;2022-07-06T10:19:30;98046.47;;;25.06;36.40
63121;BME280;54478;48.684;20.114;2022-07-06T10:22:01;98038.63;;;25.59;35.24
63121;BME280;54478;48.684;20.114;2022-07-06T10:24:30;98050.28;;;25.64;35.50
63121;BME280;54478;48.684;20.114;2022-07-06T10:27:02;98031.91;;;24.49;37.61
63121;BME280;54478;48.684;20.114;2022-07-06T10:29:30;98026.50;;;24.11;37.30
63121;BME280;54478;48.684;20.114;2022-07-06T10:31:56;98030.56;;;23.99;37.80
63121;BME280;54478;48.684;20.114;2022-07-06T10:34:24;98022.16;;;24.01;37.20
63121;BME280;54478;48.684;20.114;2022-07-06T10:36:53;98022.78;;;24.82;36.66
63121;BME280;54478;48.684;20.114;2022-07-06T10:39:36;98017.44;;;24.76;34.75
63121;BME280;54478;48.684;20.114;2022-07-06T10:42:44;98036.31;;;25.03;35.71
63121;BME280;54478;48.684;20.114;2022-07-06T10:45:19;98032.09;;;25.04;34.87
63121;BME280;54478;48.684;20.114;2022-07-06T10:47:47;98030.41;;;25.87;34.08
63121;BME280;54478;48.684;20.114;2022-07-06T10:50:15;98040.50;;;26.69;33.56
63121;BME280;54478;48.684;20.114;2022-07-06T10:52:58;98040.28;;;26.77;33.11
63121;BME280;54478;48.684;20.114;2022-07-06T10:55:36;98035.41;;;27.03;31.58
63121;BME280;54478;48.684;20.114;2022-07-06T10:58:03;98043.72;;;27.11;31.40
63121;BME280;54478;48.684;20.114;2022-07-06T11:00:51;98033.69;;;26.51;32.43
63121;BME280;54478;48.684;20.114;2022-07-06T11:03:34;98029.69;;;26.32;32.52
63121;BME280;54478;48.684;20.114;2022-07-06T11:06:20;97999.81;;;26.81;32.52
63121;BME280;54478;48.684;20.114;2022-07-06T11:08:54;98030.06;;;26.62;31.84
63121;BME280;54478;48.684;20.114;2022-07-06T11:16:36;98023.44;;;25.78;32.04
63121;BME280;54478;48.684;20.114;2022-07-06T11:19:08;98028.22;;;26.43;32.91
63121;BME280;54478;48.684;20.114;2022-07-06T11:24:29;98026.09;;;27.52;33.34
63121;BME280;54478;48.684;20.114;2022-07-06T11:26:58;98025.53;;;27.68;32.03
63121;BME280;54478;48.684;20.114;2022-07-06T11:29:26;98014.06;;;27.54;31.70
63121;BME280;54478;48.684;20.114;2022-07-06T11:31:56;98014.09;;;27.94;31.21
63121;BME280;54478;48.684;20.114;2022-07-06T11:34:28;98014.53;;;27.88;28.98
63121;BME280;54478;48.684;20.114;2022-07-06T11:36:59;98029.56;;;27.88;29.18
63121;BME280;54478;48.684;20.114;2022-07-06T11:39:30;98021.81;;;28.03;29.21
63121;BME280;54478;48.684;20.114;2022-07-06T11:42:00;98036.53;;;27.85;30.07
63121;BME280;54478;48.684;20.114;2022-07-06T11:44:28;98015.59;;;27.69;29.56
63121;BME280;54478;48.684;20.114;2022-07-06T11:46:57;98013.13;;;27.26;29.86
63121;BME280;54478;48.684;20.114;2022-07-06T11:49:28;98018.41;;;26.94;31.11
63121;BME280;54478;48.684;20.114;2022-07-06T11:51:58;98016.44;;;27.46;30.51
63121;BME280;54478;48.684;20.114;2022-07-06T11:54:29;98003.31;;;28.32;29.00
63121;BME280;54478;48.684;20.114;2022-07-06T11:56:57;97994.78;;;28.06;29.61
63121;BME280;54478;48.684;20.114;2022-07-06T11:59:31;98009.69;;;27.15;30.34
63121;BME280;54478;48.684;20.114;2022-07-06T12:02:05;98005.50;;;26.92;30.65
63121;BME280;54478;48.684;20.114;2022-07-06T12:04:32;98004.03;;;26.56;30.25
63121;BME280;54478;48.684;20.114;2022-07-06T12:07:06;98014.78;;;26.34;31.38
63121;BME280;54478;48.684;20.114;2022-07-06T12:09:37;98016.66;;;26.29;32.70
63121;BME280;54478;48.684;20.114;2022-07-06T12:12:07;98019.84;;;26.12;32.86
63121;BME280;54478;48.684;20.114;2022-07-06T12:14:38;98015.13;;;26.04;32.75
63121;BME280;54478;48.684;20.114;2022-07-06T12:17:09;98008.41;;;26.00;33.50
63121;BME280;54478;48.684;20.114;2022-07-06T12:19:38;98014.44;;;25.94;33.57
63121;BME280;54478;48.684;20.114;2022-07-06T12:22:08;98011.72;;;25.96;33.13
63121;BME280;54478;48.684;20.114;2022-07-06T12:24:37;98025.31;;;26.07;33.84
63121;BME280;54478;48.684;20.114;2022-07-06T12:29:38;98011.78;;;26.08;33.81
63121;BME280;54478;48.684;20.114;2022-07-06T12:32:04;98014.53;;;26.18;32.00
63121;BME280;54478;48.684;20.114;2022-07-06T12:34:33;98011.97;;;26.57;31.34
63121;BME280;54478;48.684;20.114;2022-07-06T12:37:08;98002.16;;;28.37;30.34
63121;BME280;54478;48.684;20.114;2022-07-06T12:39:45;98009.53;;;28.96;29.71
63121;BME280;54478;48.684;20.114;2022-07-06T12:42:15;98001.34;;;29.32;29.33
63121;BME280;54478;48.684;20.114;2022-07-06T12:44:43;98000.84;;;29.81;27.16
63121;BME280;54478;48.684;20.114;2022-07-06T12:47:12;97989.06;;;29.75;26.25
63121;BME280;54478;48.684;20.114;2022-07-06T12:49:40;97980.50;;;30.53;25.48
63121;BME280;54478;48.684;20.114;2022-07-06T12:52:11;97997.19;;;31.25;23.61
63121;BME280;54478;48.684;20.114;2022-07-06T12:54:42;97978.19;;;31.70;22.77
63121;BME280;54478;48.684;20.114;2022-07-06T13:02:37;97981.16;;;32.48;21.18
63121;BME280;54478;48.684;20.114;2022-07-06T13:05:06;97979.47;;;31.30;23.27
63121;BME280;54478;48.684;20.114;2022-07-06T13:07:37;97983.44;;;30.55;24.01
63121;BME280;54478;48.684;20.114;2022-07-06T13:10:07;97988.09;;;31.30;23.90
63121;BME280;54478;48.684;20.114;2022-07-06T13:12:36;97981.63;;;31.66;23.57
63121;BME280;54478;48.684;20.114;2022-07-06T13:15:03;97958.91;;;32.10;22.09
63121;BME280;54478;48.684;20.114;2022-07-06T13:17:31;97968.91;;;32.27;21.63
63121;BME280;54478;48.684;20.114;2022-07-06T13:20:00;97974.31;;;32.37;22.53